sensor_id;sensor_type;location;lat;lon;timestamp;pressure;altitude;pressure_sealevel;temperature;humidity
22582;BME280;47125;48.542;9.052;2023-03-23T00:04:49;95500.50;;;14.42;47.84
22582;BME280;47125;48.542;9.052;2023-03-23T00:14:52;95500.25;;;14.44;47.59
22582;BME280;47125;48.542;9.052;2023-03-23T00:24:54;95479.00;;;14.52;47.46
22582;BME280;47125;48.542;9.052;2023-03-23T00:34:57;95464.28;;;14.34;48.41
22582;BME280;47125;48.542;9.052;2023-03-23T00:44:59;95455.66;;;14.38;48.08
22582;BME280;47125;48.542;9.052;2023-03-23T00:55:03;95449.78;;;14.36;48.30
22582;BME280;47125;48.542;9.052;2023-03-23T01:05:05;95441.19;;;14.23;49.12
22582;BME280;47125;48.542;9.052;2023-03-23T01:15:09;95436.88;;;14.22;48.71
22582;BME280;47125;48.542;9.052;2023-03-23T01:25:11;95425.88;;;14.19;48.98
22582;BME280;47125;48.542;9.052;2023-03-23T01:35:14;95414.84;;;14.25;48.54
22582;BME280;47125;48.542;9.052;2023-03-23T01:45:23;95405.16;;;14.24;48.77
22582;BME280;47125;48.542;9.052;2023-03-23T01:55:27;95389.59;;;14.21;49.12
22582;BME280;47125;48.542;9.052;2023-03-23T02:05:29;95385.00;;;14.27;49.35
22582;BME280;47125;48.542;9.052;2023-03-23T02:15:38;95384.50;;;14.25;49.19
22582;BME280;47125;48.542;9.052;2023-03-23T02:25:46;95384.56;;;14.15;49.27
22582;BME280;47125;48.542;9.052;2023-03-23T02:35:56;95369.22;;;14.20;49.31
22582;BME280;47125;48.542;9.052;2023-03-23T02:45:58;95356.91;;;14.14;49.17
22582;BME280;47125;48.542;9.052;2023-03-23T02:56:02;95341.88;;;14.03;49.69
22582;BME280;47125;48.542;9.052;2023-03-23T03:06:06;95330.91;;;14.00;49.93
22582;BME280;47125;48.542;9.052;2023-03-23T03:16:14;95330.59;;;14.11;50.43
22582;BME280;47125;48.542;9.052;2023-03-23T03:26:19;95313.84;;;14.24;50.40
22582;BME280;47125;48.542;9.052;2023-03-23T03:36:22;95320.56;;;14.27;50.45
22582;BME280;47125;48.542;9.052;2023-03-23T03:46:25;95318.72;;;14.32;50.06
22582;BME280;47125;48.542;9.052;2023-03-23T03:56:31;95323.44;;;14.46;49.89
22582;BME280;47125;48.542;9.052;2023-03-23T04:06:35;95310.00;;;14.51;49.81
22582;BME280;47125;48.542;9.052;2023-03-23T04:16:39;95309.16;;;14.55;49.75
22582;BME280;47125;48.542;9.052;2023-03-23T04:26:41;95313.72;;;14.55;49.83
22582;BME280;47125;48.542;9.052;2023-03-23T04:36:46;95307.53;;;14.54;49.73
22582;BME280;47125;48.542;9.052;2023-03-23T04:46:47;95310.19;;;14.64;49.40
22582;BME280;47125;48.542;9.052;2023-03-23T04:56:51;95319.31;;;14.63;49.51
22582;BME280;47125;48.542;9.052;2023-03-23T05:06:53;95317.19;;;14.60;49.86
22582;BME280;47125;48.542;9.052;2023-03-23T05:16:55;95314.28;;;14.52;50.02
22582;BME280;47125;48.542;9.052;2023-03-23T05:26:57;95308.66;;;14.53;50.10
22582;BME280;47125;48.542;9.052;2023-03-23T05:37:00;95310.81;;;14.46;50.38
22582;BME280;47125;48.542;9.052;2023-03-23T05:47:03;95316.75;;;14.43;50.70
22582;BME280;47125;48.542;9.052;2023-03-23T05:57:06;95320.00;;;14.40;50.77
22582;BME280;47125;48.542;9.052;2023-03-23T06:07:08;95333.38;;;14.50;50.53
22582;BME280;47125;48.542;9.052;2023-03-23T06:17:14;95352.97;;;14.56;50.25
22582;BME280;47125;48.542;9.052;2023-03-23T06:27:16;95365.81;;;14.64;50.09
22582;BME280;47125;48.542;9.052;2023-03-23T06:37:19;95373.06;;;14.63;50.38
22582;BME280;47125;48.542;9.052;2023-03-23T06:47:20;95383.03;;;14.63;50.58
22582;BME280;47125;48.542;9.052;2023-03-23T06:57:24;95389.13;;;14.73;50.24
22582;BME280;47125;48.542;9.052;2023-03-23T07:07:26;95401.75;;;14.73;50.30
22582;BME280;47125;48.542;9.052;2023-03-23T07:17:29;95404.66;;;14.86;50.21
22582;BME280;47125;48.542;9.052;2023-03-23T07:27:30;95397.34;;;14.92;50.22
22582;BME280;47125;48.542;9.052;2023-03-23T07:37:33;95427.19;;;14.90;50.77
22582;BME280;47125;48.542;9.052;2023-03-23T07:47:35;95434.16;;;15.02;50.73
22582;BME280;47125;48.542;9.052;2023-03-23T07:57:39;95430.78;;;15.20;50.85
22582;BME280;47125;48.542;9.052;2023-03-23T08:07:40;95450.81;;;15.42;51.18
22582;BME280;47125;48.542;9.052;2023-03-23T08:17:43;95468.50;;;15.54;51.57
22582;BME280;47125;48.542;9.052;2023-03-23T08:27:45;95469.69;;;15.71;52.22
22582;BME280;47125;48.542;9.052;2023-03-23T08:37:47;95486.09;;;15.75;53.54
22582;BME280;47125;48.542;9.052;2023-03-23T08:47:51;95490.84;;;15.54;54.73
22582;BME280;47125;48.542;9.052;2023-03-23T08:57:56;95492.09;;;15.67;54.84
22582;BME280;47125;48.542;9.052;2023-03-23T09:07:57;95507.13;;;15.73;55.41
22582;BME280;47125;48.542;9.052;2023-03-23T09:18:00;95504.75;;;16.00;54.90
22582;BME280;47125;48.542;9.052;2023-03-23T09:28:02;95505.13;;;16.17;54.84
22582;BME280;47125;48.542;9.052;2023-03-23T09:38:05;95527.56;;;16.08;54.77
22582;BME280;47125;48.542;9.052;2023-03-23T09:58:31;95529.09;;;16.19;54.14
22582;BME280;47125;48.542;9.052;2023-03-23T10:08:36;95532.34;;;16.44;53.18
22582;BME280;47125;48.542;9.052;2023-03-23T10:18:43;95541.69;;;16.81;53.01
22582;BME280;47125;48.542;9.052;2023-03-23T10:28:48;95534.81;;;16.70;52.92
22582;BME280;47125;48.542;9.052;2023-03-23T10:38:55;95565.56;;;16.69;53.12
22582;BME280;47125;48.542;9.052;2023-03-23T10:48:59;95560.78;;;16.61;54.70
22582;BME280;47125;48.542;9.052;2023-03-23T10:59:12;95556.16;;;16.66;53.07
22582;BME280;47125;48.542;9.052;2023-03-23T11:09:14;95560.63;;;16.76;52.84
22582;BME280;47125;48.542;9.052;2023-03-23T11:19:22;95567.50;;;16.87;53.08
22582;BME280;47125;48.542;9.052;2023-03-23T11:29:24;95536.69;;;16.69;52.21
22582;BME280;47125;48.542;9.052;2023-03-23T11:39:29;95529.84;;;17.00;51.86
22582;BME280;47125;48.542;9.052;2023-03-23T11:49:35;95527.59;;;17.07;51.76
22582;BME280;47125;48.542;9.052;2023-03-23T11:59:40;95537.41;;;17.22;50.98
22582;BME280;47125;48.542;9.052;2023-03-23T12:09:43;95514.03;;;17.36;50.28
22582;BME280;47125;48.542;9.052;2023-03-23T12:19:52;95516.72;;;17.36;49.08
22582;BME280;47125;48.542;9.052;2023-03-23T12:30:01;95520.41;;;17.22;48.80
22582;BME280;47125;48.542;9.052;2023-03-23T12:40:15;95506.97;;;17.17;49.08
22582;BME280;47125;48.542;9.052;2023-03-23T12:50:23;95503.94;;;17.23;48.89
22582;BME280;47125;48.542;9.052;2023-03-23T13:00:29;95494.91;;;17.33;48.43
22582;BME280;47125;48.542;9.052;2023-03-23T13:10:33;95480.22;;;17.76;48.15
22582;BME280;47125;48.542;9.052;2023-03-23T13:20:40;95461.41;;;17.71;47.25
22582;BME280;47125;48.542;9.052;2023-03-23T13:30:52;95448.94;;;17.56;47.23
22582;BME280;47125;48.542;9.052;2023-03-23T13:40:56;95451.41;;;17.53;47.43
22582;BME280;47125;48.542;9.052;2023-03-23T13:50:59;95454.03;;;17.58;46.53
22582;BME280;47125;48.542;9.052;2023-03-23T14:01:09;95439.28;;;17.50;46.68
22582;BME280;47125;48.542;9.052;2023-03-23T14:11:13;95436.59;;;17.50;46.61
22582;BME280;47125;48.542;9.052;2023-03-23T14:21:21;95407.97;;;17.49;45.95
22582;BME280;47125;48.542;9.052;2023-03-23T14:31:23;95418.28;;;17.47;45.92
22582;BME280;47125;48.542;9.052;2023-03-23T14:41:29;95409.53;;;17.37;46.52
22582;BME280;47125;48.542;9.052;2023-03-23T14:51:30;95414.50;;;17.30;46.77
22582;BME280;47125;48.542;9.052;2023-03-23T15:01:34;95420.72;;;17.30;47.20
22582;BME280;47125;48.542;9.052;2023-03-23T15:11:36;95413.44;;;17.12;45.97
22582;BME280;47125;48.542;9.052;2023-03-23T15:21:47;95416.19;;;17.07;46.23
22582;BME280;47125;48.542;9.052;2023-03-23T15:31:50;95435.66;;;17.04;46.57
22582;BME280;47125;48.542;9.052;2023-03-23T15:41:53;95447.75;;;16.88;47.13
22582;BME280;47125;48.542;9.052;2023-03-23T15:51:55;95440.25;;;16.85;47.27
22582;BME280;47125;48.542;9.052;2023-03-23T16:01:58;95435.41;;;16.63;47.73
22582;BME280;47125;48.542;9.052;2023-03-23T16:12:01;95429.19;;;16.63;48.23
22582;BME280;47125;48.542;9.052;2023-03-23T16:22:04;95431.66;;;16.59;48.49
22582;BME280;47125;48.542;9.052;2023-03-23T16:32:07;95437.72;;;16.46;49.47
22582;BME280;47125;48.542;9.052;2023-03-23T16:42:11;95416.38;;;16.49;49.94
22582;BME280;47125;48.542;9.052;2023-03-23T16:52:14;95421.91;;;16.39;50.34
22582;BME280;47125;48.542;9.052;2023-03-23T17:02:19;95428.09;;;16.40;50.46
22582;BME280;47125;48.542;9.052;2023-03-23T17:12:22;95433.28;;;16.31;51.66
22582;BME280;47125;48.542;9.052;2023-03-23T17:22:26;95443.16;;;16.17;51.89
22582;BME280;47125;48.542;9.052;2023-03-23T17:32:29;95428.66;;;16.13;52.19
22582;BME280;47125;48.542;9.052;2023-03-23T17:42:33;95421.66;;;16.12;52.07
22582;BME280;47125;48.542;9.052;2023-03-23T17:52:36;95423.03;;;16.10;52.10
22582;BME280;47125;48.542;9.052;2023-03-23T18:02:39;95430.09;;;16.06;52.22
22582;BME280;47125;48.542;9.052;2023-03-23T18:12:42;95420.19;;;16.01;52.43
22582;BME280;47125;48.542;9.052;2023-03-23T18:22:46;95430.72;;;15.97;52.62
22582;BME280;47125;48.542;9.052;2023-03-23T18:32:49;95442.84;;;15.95;52.86
22582;BME280;47125;48.542;9.052;2023-03-23T18:42:53;95433.16;;;15.94;52.83
22582;BME280;47125;48.542;9.052;2023-03-23T18:52:55;95439.38;;;15.89;52.94
22582;BME280;47125;48.542;9.052;2023-03-23T19:02:59;95445.41;;;15.81;53.22
22582;BME280;47125;48.542;9.052;2023-03-23T19:13:02;95436.06;;;15.74;53.57
22582;BME280;47125;48.542;9.052;2023-03-23T19:23:06;95437.19;;;15.68;53.83
22582;BME280;47125;48.542;9.052;2023-03-23T19:33:09;95440.94;;;15.67;53.72
22582;BME280;47125;48.542;9.052;2023-03-23T19:43:13;95431.25;;;15.66;53.66
22582;BME280;47125;48.542;9.052;2023-03-23T19:53:15;95419.97;;;15.64;53.67
22582;BME280;47125;48.542;9.052;2023-03-23T20:03:21;95414.34;;;15.60;53.76
22582;BME280;47125;48.542;9.052;2023-03-23T20:13:23;95398.75;;;15.57;53.75
22582;BME280;47125;48.542;9.052;2023-03-23T20:23:27;95394.75;;;15.55;53.82
22582;BME280;47125;48.542;9.052;2023-03-23T20:33:30;95397.97;;;15.57;53.76
22582;BME280;47125;48.542;9.052;2023-03-23T20:43:34;95388.81;;;15.58;53.57
22582;BME280;47125;48.542;9.052;2023-03-23T20:53:37;95372.41;;;15.54;53.73
22582;BME280;47125;48.542;9.052;2023-03-23T21:03:42;95364.84;;;15.56;53.44
22582;BME280;47125;48.542;9.052;2023-03-23T21:13:44;95371.03;;;15.57;53.10
22582;BME280;47125;48.542;9.052;2023-03-23T21:23:49;95357.88;;;15.55;52.97
22582;BME280;47125;48.542;9.052;2023-03-23T21:33:53;95337.44;;;15.54;52.86
22582;BME280;47125;48.542;9.052;2023-03-23T21:43:57;95326.16;;;15.52;52.75
22582;BME280;47125;48.542;9.052;2023-03-23T21:54:00;95313.22;;;15.54;52.39
22582;BME280;47125;48.542;9.052;2023-03-23T22:04:04;95297.88;;;15.55;52.64
22582;BME280;47125;48.542;9.052;2023-03-23T22:14:07;95284.47;;;15.50;52.78
22582;BME280;47125;48.542;9.052;2023-03-23T22:24:11;95244.78;;;15.60;51.83
22582;BME280;47125;48.542;9.052;2023-03-23T22:34:14;95226.00;;;15.55;52.16
22582;BME280;47125;48.542;9.052;2023-03-23T22:44:18;95233.84;;;15.52;52.65
22582;BME280;47125;48.542;9.052;2023-03-23T22:54:23;95228.34;;;15.38;53.17
22582;BME280;47125;48.542;9.052;2023-03-23T23:04:27;95218.00;;;15.45;52.84
22582;BME280;47125;48.542;9.052;2023-03-23T23:14:29;95217.28;;;15.39;53.21
22582;BME280;47125;48.542;9.052;2023-03-23T23:24:33;95241.38;;;15.26;54.52
22582;BME280;47125;48.542;9.052;2023-03-23T23:34:36;95263.03;;;15.11;55.75
22582;BME280;47125;48.542;9.052;2023-03-23T23:44:40;95245.00;;;15.11;56.23
22582;BME280;47125;48.542;9.052;2023-03-23T23:54:43;95234.91;;;14.98;56.66
